KDNN/DNN METAR and TAF weather

Enter ICAO airport designator
Station Type Date Time Source
KDNN METAR 2019/08/01 22:35 UTC NOAA

KDNN 012235Z AUTO 13015G22KT 5SM +TSRA 25/21 A3007 RMK AO2 LTG DSNT ALQDS


Station Type Date Time Source
KDNN Decoded METAR 2019/08/01 22:35 UTC NOAA

Dalton, Dalton Municipal Airport, GA, United States (KDNN) 34-43-18N 084-52-09W
Aug 01, 2019 - 06:35 PM EDT / 2019.08.01 2235 UTC
Wind: from the SE (130 degrees) at 17 MPH (15 KT) gusting to 25 MPH (22 KT):0
Visibility: 5 mile(s):0
Weather: heavy rain with thunder; Lightning observed
Temperature: 77 F (25 C)
Dew Point: 69 F (21 C)
Relative Humidity: 78%
Pressure (altimeter): 30.07 in. Hg (1018 hPa)
ob: KDNN 012235Z AUTO 13015G22KT 5SM +TSRA 25/21 A3007 RMK AO2 LTG DSNT ALQDS
cycle: 22

Station Type Date Time Source
KDNN TAF UTC NOAA

Error!

Example: see airport list